sensor_id;sensor_type;location;lat;lon;timestamp;P1;durP1;ratioP1;P2;durP2;ratioP2
68168;SDS011;54981;50.206;15.978;2023-10-13T00:01:59;21.52;;;19.08;;
68168;SDS011;54981;50.206;15.978;2023-10-13T00:04:31;24.25;;;18.52;;
68168;SDS011;54981;50.206;15.978;2023-10-13T00:07:05;21.77;;;19.58;;
68168;SDS011;54981;50.206;15.978;2023-10-13T00:12:09;22.80;;;18.60;;
68168;SDS011;54981;50.206;15.978;2023-10-13T00:14:43;19.55;;;17.00;;
68168;SDS011;54981;50.206;15.978;2023-10-13T00:17:15;20.83;;;18.23;;
68168;SDS011;54981;50.206;15.978;2023-10-13T00:19:50;19.63;;;17.45;;
68168;SDS011;54981;50.206;15.978;2023-10-13T00:22:23;19.70;;;17.58;;
68168;SDS011;54981;50.206;15.978;2023-10-13T00:24:54;18.58;;;16.67;;
68168;SDS011;54981;50.206;15.978;2023-10-13T00:27:28;21.70;;;17.98;;
68168;SDS011;54981;50.206;15.978;2023-10-13T00:30:00;19.50;;;17.35;;
68168;SDS011;54981;50.206;15.978;2023-10-13T00:32:51;19.33;;;17.40;;
68168;SDS011;54981;50.206;15.978;2023-10-13T00:35:27;18.88;;;16.08;;
68168;SDS011;54981;50.206;15.978;2023-10-13T00:37:59;20.75;;;18.05;;
68168;SDS011;54981;50.206;15.978;2023-10-13T00:40:34;19.95;;;16.45;;
68168;SDS011;54981;50.206;15.978;2023-10-13T00:43:04;20.77;;;18.55;;
68168;SDS011;54981;50.206;15.978;2023-10-13T00:45:51;20.05;;;17.95;;
68168;SDS011;54981;50.206;15.978;2023-10-13T00:48:25;19.98;;;17.85;;
68168;SDS011;54981;50.206;15.978;2023-10-13T00:51:05;19.02;;;16.98;;
68168;SDS011;54981;50.206;15.978;2023-10-13T00:53:46;18.13;;;16.33;;
68168;SDS011;54981;50.206;15.978;2023-10-13T00:56:17;20.67;;;18.48;;
68168;SDS011;54981;50.206;15.978;2023-10-13T00:58:49;20.05;;;16.35;;
68168;SDS011;54981;50.206;15.978;2023-10-13T01:01:23;20.38;;;18.27;;
68168;SDS011;54981;50.206;15.978;2023-10-13T01:04:04;19.80;;;17.90;;
68168;SDS011;54981;50.206;15.978;2023-10-13T01:06:39;20.58;;;17.08;;
68168;SDS011;54981;50.206;15.978;2023-10-13T01:09:10;19.15;;;17.25;;
68168;SDS011;54981;50.206;15.978;2023-10-13T01:11:45;19.58;;;16.92;;
68168;SDS011;54981;50.206;15.978;2023-10-13T01:14:22;19.75;;;17.60;;
68168;SDS011;54981;50.206;15.978;2023-10-13T01:16:57;20.50;;;18.42;;
68168;SDS011;54981;50.206;15.978;2023-10-13T01:19:28;20.67;;;18.52;;
68168;SDS011;54981;50.206;15.978;2023-10-13T01:21:59;20.80;;;18.50;;
68168;SDS011;54981;50.206;15.978;2023-10-13T01:24:32;21.95;;;17.35;;
68168;SDS011;54981;50.206;15.978;2023-10-13T01:27:06;20.08;;;17.88;;
68168;SDS011;54981;50.206;15.978;2023-10-13T01:29:47;19.60;;;17.52;;
68168;SDS011;54981;50.206;15.978;2023-10-13T01:32:19;21.08;;;18.25;;
68168;SDS011;54981;50.206;15.978;2023-10-13T01:34:51;19.77;;;17.55;;
68168;SDS011;54981;50.206;15.978;2023-10-13T01:37:25;20.10;;;17.98;;
68168;SDS011;54981;50.206;15.978;2023-10-13T01:39:56;21.48;;;18.02;;
68168;SDS011;54981;50.206;15.978;2023-10-13T01:42:26;20.20;;;18.10;;
68168;SDS011;54981;50.206;15.978;2023-10-13T01:44:58;19.40;;;16.75;;
68168;SDS011;54981;50.206;15.978;2023-10-13T01:47:35;22.17;;;17.50;;
68168;SDS011;54981;50.206;15.978;2023-10-13T01:50:06;18.95;;;16.52;;
68168;SDS011;54981;50.206;15.978;2023-10-13T01:52:45;20.70;;;18.15;;
68168;SDS011;54981;50.206;15.978;2023-10-13T01:55:15;19.75;;;17.27;;
68168;SDS011;54981;50.206;15.978;2023-10-13T01:57:45;19.83;;;16.35;;
68168;SDS011;54981;50.206;15.978;2023-10-13T02:00:18;19.88;;;17.60;;
68168;SDS011;54981;50.206;15.978;2023-10-13T02:02:51;19.58;;;17.67;;
68168;SDS011;54981;50.206;15.978;2023-10-13T02:05:22;20.55;;;18.27;;
68168;SDS011;54981;50.206;15.978;2023-10-13T02:07:57;21.60;;;18.00;;
68168;SDS011;54981;50.206;15.978;2023-10-13T02:10:31;20.92;;;16.83;;
68168;SDS011;54981;50.206;15.978;2023-10-13T02:13:02;21.05;;;18.90;;
68168;SDS011;54981;50.206;15.978;2023-10-13T02:15:33;20.65;;;18.13;;
68168;SDS011;54981;50.206;15.978;2023-10-13T02:18:04;19.80;;;17.80;;
68168;SDS011;54981;50.206;15.978;2023-10-13T02:20:36;21.25;;;17.73;;
68168;SDS011;54981;50.206;15.978;2023-10-13T02:23:13;19.25;;;17.25;;
68168;SDS011;54981;50.206;15.978;2023-10-13T02:25:44;19.83;;;17.77;;
68168;SDS011;54981;50.206;15.978;2023-10-13T02:28:15;17.77;;;15.85;;
68168;SDS011;54981;50.206;15.978;2023-10-13T02:30:51;19.30;;;16.70;;
68168;SDS011;54981;50.206;15.978;2023-10-13T02:33:23;20.30;;;18.30;;
68168;SDS011;54981;50.206;15.978;2023-10-13T02:36:14;18.63;;;16.73;;
68168;SDS011;54981;50.206;15.978;2023-10-13T02:38:52;18.42;;;16.52;;
68168;SDS011;54981;50.206;15.978;2023-10-13T02:41:22;18.50;;;16.60;;
68168;SDS011;54981;50.206;15.978;2023-10-13T02:43:56;18.63;;;16.92;;
68168;SDS011;54981;50.206;15.978;2023-10-13T02:46:26;18.20;;;15.15;;
68168;SDS011;54981;50.206;15.978;2023-10-13T02:48:59;17.45;;;15.63;;
68168;SDS011;54981;50.206;15.978;2023-10-13T02:51:32;17.75;;;15.88;;
68168;SDS011;54981;50.206;15.978;2023-10-13T02:54:05;18.77;;;16.90;;
68168;SDS011;54981;50.206;15.978;2023-10-13T02:56:40;17.90;;;16.10;;
68168;SDS011;54981;50.206;15.978;2023-10-13T02:59:40;18.60;;;15.68;;
68168;SDS011;54981;50.206;15.978;2023-10-13T03:02:16;17.50;;;15.82;;
68168;SDS011;54981;50.206;15.978;2023-10-13T03:04:56;18.80;;;16.90;;
68168;SDS011;54981;50.206;15.978;2023-10-13T03:07:34;17.42;;;15.73;;
68168;SDS011;54981;50.206;15.978;2023-10-13T03:10:06;18.00;;;16.20;;
68168;SDS011;54981;50.206;15.978;2023-10-13T03:12:40;18.17;;;16.30;;
68168;SDS011;54981;50.206;15.978;2023-10-13T03:15:11;17.98;;;16.15;;
68168;SDS011;54981;50.206;15.978;2023-10-13T03:17:47;18.17;;;16.33;;
68168;SDS011;54981;50.206;15.978;2023-10-13T03:20:18;17.75;;;16.02;;
68168;SDS011;54981;50.206;15.978;2023-10-13T03:22:56;17.83;;;16.02;;
68168;SDS011;54981;50.206;15.978;2023-10-13T03:25:26;19.00;;;17.08;;
68168;SDS011;54981;50.206;15.978;2023-10-13T03:28:06;18.80;;;16.17;;
68168;SDS011;54981;50.206;15.978;2023-10-13T03:30:37;20.27;;;17.52;;
68168;SDS011;54981;50.206;15.978;2023-10-13T03:33:14;18.67;;;16.67;;
68168;SDS011;54981;50.206;15.978;2023-10-13T03:35:55;19.08;;;16.98;;
68168;SDS011;54981;50.206;15.978;2023-10-13T03:38:35;18.20;;;16.20;;
68168;SDS011;54981;50.206;15.978;2023-10-13T03:41:06;17.65;;;15.95;;
68168;SDS011;54981;50.206;15.978;2023-10-13T03:43:38;18.25;;;16.27;;
68168;SDS011;54981;50.206;15.978;2023-10-13T03:46:40;17.92;;;16.05;;
68168;SDS011;54981;50.206;15.978;2023-10-13T03:49:11;18.73;;;16.85;;
68168;SDS011;54981;50.206;15.978;2023-10-13T03:51:43;18.63;;;16.67;;
68168;SDS011;54981;50.206;15.978;2023-10-13T03:54:13;20.08;;;18.25;;
68168;SDS011;54981;50.206;15.978;2023-10-13T03:56:46;21.77;;;19.02;;
68168;SDS011;54981;50.206;15.978;2023-10-13T03:59:22;20.67;;;18.75;;
68168;SDS011;54981;50.206;15.978;2023-10-13T04:01:52;22.00;;;19.85;;
68168;SDS011;54981;50.206;15.978;2023-10-13T04:04:24;20.63;;;18.50;;
68168;SDS011;54981;50.206;15.978;2023-10-13T04:07:13;20.60;;;18.38;;
68168;SDS011;54981;50.206;15.978;2023-10-13T04:10:04;20.95;;;18.88;;
68168;SDS011;54981;50.206;15.978;2023-10-13T04:13:00;21.92;;;19.83;;
68168;SDS011;54981;50.206;15.978;2023-10-13T04:15:51;21.75;;;19.58;;
68168;SDS011;54981;50.206;15.978;2023-10-13T04:18:39;23.20;;;20.67;;
68168;SDS011;54981;50.206;15.978;2023-10-13T04:21:25;21.60;;;19.30;;
68168;SDS011;54981;50.206;15.978;2023-10-13T04:24:09;21.50;;;19.38;;
68168;SDS011;54981;50.206;15.978;2023-10-13T04:26:51;22.30;;;19.98;;
68168;SDS011;54981;50.206;15.978;2023-10-13T04:29:41;23.40;;;20.77;;
68168;SDS011;54981;50.206;15.978;2023-10-13T04:32:26;22.48;;;20.13;;
68168;SDS011;54981;50.206;15.978;2023-10-13T04:35:02;22.88;;;20.42;;
68168;SDS011;54981;50.206;15.978;2023-10-13T04:37:45;21.73;;;18.70;;
68168;SDS011;54981;50.206;15.978;2023-10-13T04:40:40;22.25;;;20.10;;
68168;SDS011;54981;50.206;15.978;2023-10-13T04:43:28;23.63;;;21.10;;
68168;SDS011;54981;50.206;15.978;2023-10-13T04:46:24;21.77;;;19.58;;
68168;SDS011;54981;50.206;15.978;2023-10-13T04:49:05;22.83;;;20.35;;
68168;SDS011;54981;50.206;15.978;2023-10-13T04:52:00;20.88;;;18.88;;
68168;SDS011;54981;50.206;15.978;2023-10-13T04:54:39;23.75;;;20.60;;
68168;SDS011;54981;50.206;15.978;2023-10-13T04:57:18;22.20;;;18.95;;
68168;SDS011;54981;50.206;15.978;2023-10-13T05:00:04;21.60;;;19.40;;
68168;SDS011;54981;50.206;15.978;2023-10-13T05:02:41;22.20;;;19.98;;
68168;SDS011;54981;50.206;15.978;2023-10-13T05:05:25;20.73;;;18.63;;
68168;SDS011;54981;50.206;15.978;2023-10-13T05:08:15;21.80;;;19.52;;
68168;SDS011;54981;50.206;15.978;2023-10-13T05:11:04;20.73;;;18.63;;
68168;SDS011;54981;50.206;15.978;2023-10-13T05:13:54;22.45;;;19.73;;
68168;SDS011;54981;50.206;15.978;2023-10-13T05:16:53;20.88;;;18.88;;
68168;SDS011;54981;50.206;15.978;2023-10-13T05:19:42;22.10;;;19.90;;
68168;SDS011;54981;50.206;15.978;2023-10-13T05:22:30;21.55;;;19.45;;
68168;SDS011;54981;50.206;15.978;2023-10-13T05:25:19;21.55;;;19.35;;
68168;SDS011;54981;50.206;15.978;2023-10-13T05:28:08;22.98;;;20.58;;
68168;SDS011;54981;50.206;15.978;2023-10-13T05:30:59;21.17;;;19.15;;
68168;SDS011;54981;50.206;15.978;2023-10-13T05:33:48;23.83;;;21.42;;
68168;SDS011;54981;50.206;15.978;2023-10-13T05:36:37;22.40;;;20.10;;
68168;SDS011;54981;50.206;15.978;2023-10-13T05:39:26;22.30;;;20.10;;
68168;SDS011;54981;50.206;15.978;2023-10-13T05:42:15;21.45;;;19.25;;
68168;SDS011;54981;50.206;15.978;2023-10-13T05:45:03;23.02;;;20.63;;
68168;SDS011;54981;50.206;15.978;2023-10-13T05:47:46;22.13;;;20.10;;
68168;SDS011;54981;50.206;15.978;2023-10-13T05:50:17;23.60;;;20.08;;
68168;SDS011;54981;50.206;15.978;2023-10-13T05:52:50;22.52;;;20.33;;
68168;SDS011;54981;50.206;15.978;2023-10-13T05:55:27;22.48;;;20.13;;
68168;SDS011;54981;50.206;15.978;2023-10-13T05:58:16;22.98;;;20.67;;
68168;SDS011;54981;50.206;15.978;2023-10-13T06:01:05;21.90;;;19.70;;
68168;SDS011;54981;50.206;15.978;2023-10-13T06:03:53;22.33;;;20.02;;
68168;SDS011;54981;50.206;15.978;2023-10-13T06:06:42;22.52;;;20.30;;
68168;SDS011;54981;50.206;15.978;2023-10-13T06:09:31;19.77;;;17.67;;
68168;SDS011;54981;50.206;15.978;2023-10-13T06:12:19;22.98;;;20.27;;
68168;SDS011;54981;50.206;15.978;2023-10-13T06:15:08;21.33;;;19.13;;
68168;SDS011;54981;50.206;15.978;2023-10-13T06:17:57;20.60;;;18.20;;
68168;SDS011;54981;50.206;15.978;2023-10-13T06:20:48;20.52;;;18.52;;
68168;SDS011;54981;50.206;15.978;2023-10-13T06:23:36;20.80;;;18.70;;
68168;SDS011;54981;50.206;15.978;2023-10-13T06:26:25;19.35;;;17.45;;
68168;SDS011;54981;50.206;15.978;2023-10-13T06:29:14;24.73;;;22.30;;
68168;SDS011;54981;50.206;15.978;2023-10-13T06:31:49;19.55;;;17.65;;
68168;SDS011;54981;50.206;15.978;2023-10-13T06:34:20;22.45;;;17.15;;
68168;SDS011;54981;50.206;15.978;2023-10-13T06:36:51;20.35;;;18.08;;
68168;SDS011;54981;50.206;15.978;2023-10-13T06:39:24;17.63;;;15.93;;
68168;SDS011;54981;50.206;15.978;2023-10-13T06:42:07;19.52;;;17.52;;
68168;SDS011;54981;50.206;15.978;2023-10-13T06:44:37;18.45;;;16.55;;
68168;SDS011;54981;50.206;15.978;2023-10-13T06:47:09;20.95;;;18.73;;
68168;SDS011;54981;50.206;15.978;2023-10-13T06:49:40;19.45;;;16.20;;
68168;SDS011;54981;50.206;15.978;2023-10-13T06:52:13;19.58;;;17.10;;
68168;SDS011;54981;50.206;15.978;2023-10-13T06:54:43;18.90;;;16.13;;
68168;SDS011;54981;50.206;15.978;2023-10-13T06:57:14;15.40;;;13.63;;
68168;SDS011;54981;50.206;15.978;2023-10-13T06:59:45;19.17;;;14.50;;
68168;SDS011;54981;50.206;15.978;2023-10-13T07:02:15;16.30;;;14.15;;
68168;SDS011;54981;50.206;15.978;2023-10-13T07:04:51;16.23;;;14.52;;
68168;SDS011;54981;50.206;15.978;2023-10-13T07:07:26;16.83;;;15.13;;
68168;SDS011;54981;50.206;15.978;2023-10-13T07:09:57;18.55;;;15.45;;
68168;SDS011;54981;50.206;15.978;2023-10-13T07:12:28;15.27;;;13.68;;
68168;SDS011;54981;50.206;15.978;2023-10-13T07:15:03;14.68;;;12.93;;
68168;SDS011;54981;50.206;15.978;2023-10-13T07:17:48;16.38;;;14.13;;
68168;SDS011;54981;50.206;15.978;2023-10-13T07:20:26;14.32;;;12.40;;
68168;SDS011;54981;50.206;15.978;2023-10-13T07:22:59;13.40;;;12.05;;
68168;SDS011;54981;50.206;15.978;2023-10-13T07:25:36;14.95;;;13.35;;
68168;SDS011;54981;50.206;15.978;2023-10-13T07:28:07;15.80;;;13.82;;
68168;SDS011;54981;50.206;15.978;2023-10-13T07:30:38;14.30;;;12.55;;
68168;SDS011;54981;50.206;15.978;2023-10-13T07:33:19;15.25;;;12.52;;
68168;SDS011;54981;50.206;15.978;2023-10-13T07:36:06;13.23;;;11.02;;
68168;SDS011;54981;50.206;15.978;2023-10-13T07:38:56;22.58;;;18.88;;
68168;SDS011;54981;50.206;15.978;2023-10-13T07:41:52;16.83;;;13.60;;
68168;SDS011;54981;50.206;15.978;2023-10-13T07:44:33;12.95;;;11.50;;
68168;SDS011;54981;50.206;15.978;2023-10-13T07:47:10;12.45;;;10.90;;
68168;SDS011;54981;50.206;15.978;2023-10-13T07:49:41;14.88;;;12.07;;
68168;SDS011;54981;50.206;15.978;2023-10-13T07:52:11;15.20;;;11.07;;
68168;SDS011;54981;50.206;15.978;2023-10-13T07:54:53;14.13;;;10.18;;
68168;SDS011;54981;50.206;15.978;2023-10-13T07:57:40;15.63;;;13.57;;
68168;SDS011;54981;50.206;15.978;2023-10-13T08:00:23;12.38;;;10.40;;
68168;SDS011;54981;50.206;15.978;2023-10-13T08:03:13;12.00;;;9.90;;
68168;SDS011;54981;50.206;15.978;2023-10-13T08:05:52;12.02;;;9.30;;
68168;SDS011;54981;50.206;15.978;2023-10-13T08:08:36;13.13;;;9.95;;
68168;SDS011;54981;50.206;15.978;2023-10-13T08:11:10;13.68;;;10.35;;
68168;SDS011;54981;50.206;15.978;2023-10-13T08:13:55;14.88;;;10.95;;
68168;SDS011;54981;50.206;15.978;2023-10-13T08:16:29;12.63;;;10.60;;
68168;SDS011;54981;50.206;15.978;2023-10-13T08:19:23;12.68;;;10.32;;
68168;SDS011;54981;50.206;15.978;2023-10-13T08:21:59;12.48;;;9.77;;
68168;SDS011;54981;50.206;15.978;2023-10-13T08:24:29;11.60;;;9.20;;
68168;SDS011;54981;50.206;15.978;2023-10-13T08:27:09;13.50;;;11.30;;
68168;SDS011;54981;50.206;15.978;2023-10-13T08:30:04;11.75;;;10.18;;
68168;SDS011;54981;50.206;15.978;2023-10-13T08:32:57;14.98;;;9.75;;
68168;SDS011;54981;50.206;15.978;2023-10-13T08:35:29;11.55;;;9.65;;
68168;SDS011;54981;50.206;15.978;2023-10-13T08:38:05;11.02;;;9.55;;
68168;SDS011;54981;50.206;15.978;2023-10-13T08:40:44;13.60;;;8.98;;
68168;SDS011;54981;50.206;15.978;2023-10-13T08:43:46;13.60;;;9.60;;
68168;SDS011;54981;50.206;15.978;2023-10-13T08:46:20;11.93;;;9.32;;
68168;SDS011;54981;50.206;15.978;2023-10-13T08:49:01;11.65;;;8.98;;
68168;SDS011;54981;50.206;15.978;2023-10-13T08:51:47;12.32;;;8.00;;
68168;SDS011;54981;50.206;15.978;2023-10-13T08:54:20;12.80;;;8.95;;
68168;SDS011;54981;50.206;15.978;2023-10-13T08:57:03;10.48;;;8.65;;
68168;SDS011;54981;50.206;15.978;2023-10-13T08:59:49;10.32;;;8.18;;
68168;SDS011;54981;50.206;15.978;2023-10-13T09:02:25;13.93;;;8.52;;
68168;SDS011;54981;50.206;15.978;2023-10-13T09:05:15;11.55;;;8.73;;
68168;SDS011;54981;50.206;15.978;2023-10-13T09:08:05;10.75;;;9.07;;
68168;SDS011;54981;50.206;15.978;2023-10-13T09:10:39;11.05;;;8.65;;
68168;SDS011;54981;50.206;15.978;2023-10-13T09:13:35;9.35;;;8.18;;
68168;SDS011;54981;50.206;15.978;2023-10-13T09:16:14;15.27;;;8.57;;
68168;SDS011;54981;50.206;15.978;2023-10-13T09:19:03;12.45;;;9.18;;
68168;SDS011;54981;50.206;15.978;2023-10-13T09:21:40;9.93;;;7.85;;
68168;SDS011;54981;50.206;15.978;2023-10-13T09:24:11;11.43;;;7.88;;
68168;SDS011;54981;50.206;15.978;2023-10-13T09:26:51;11.20;;;7.82;;
68168;SDS011;54981;50.206;15.978;2023-10-13T09:29:25;9.35;;;7.85;;
68168;SDS011;54981;50.206;15.978;2023-10-13T09:32:00;13.02;;;7.90;;
68168;SDS011;54981;50.206;15.978;2023-10-13T09:34:33;9.32;;;8.00;;
68168;SDS011;54981;50.206;15.978;2023-10-13T09:37:10;10.13;;;8.32;;
68168;SDS011;54981;50.206;15.978;2023-10-13T09:39:41;12.45;;;8.20;;
68168;SDS011;54981;50.206;15.978;2023-10-13T09:42:22;13.80;;;8.95;;
68168;SDS011;54981;50.206;15.978;2023-10-13T09:47:29;11.45;;;8.35;;
68168;SDS011;54981;50.206;15.978;2023-10-13T09:50:02;14.50;;;8.55;;
68168;SDS011;54981;50.206;15.978;2023-10-13T09:52:35;10.70;;;8.15;;
68168;SDS011;54981;50.206;15.978;2023-10-13T09:57:51;9.27;;;8.02;;
68168;SDS011;54981;50.206;15.978;2023-10-13T10:00:28;11.20;;;7.90;;
68168;SDS011;54981;50.206;15.978;2023-10-13T10:03:05;11.35;;;8.55;;
68168;SDS011;54981;50.206;15.978;2023-10-13T10:06:00;9.85;;;8.27;;
68168;SDS011;54981;50.206;15.978;2023-10-13T10:09:04;15.70;;;8.52;;
68168;SDS011;54981;50.206;15.978;2023-10-13T10:17:19;11.38;;;8.10;;
68168;SDS011;54981;50.206;15.978;2023-10-13T10:19:52;11.70;;;6.72;;
68168;SDS011;54981;50.206;15.978;2023-10-13T10:25:03;9.13;;;7.35;;
68168;SDS011;54981;50.206;15.978;2023-10-13T10:27:57;8.85;;;6.65;;
68168;SDS011;54981;50.206;15.978;2023-10-13T10:30:29;10.00;;;7.00;;
68168;SDS011;54981;50.206;15.978;2023-10-13T10:33:03;11.32;;;7.18;;
68168;SDS011;54981;50.206;15.978;2023-10-13T10:35:42;8.88;;;6.78;;
68168;SDS011;54981;50.206;15.978;2023-10-13T10:38:15;9.20;;;6.65;;
68168;SDS011;54981;50.206;15.978;2023-10-13T10:41:03;7.90;;;7.10;;
68168;SDS011;54981;50.206;15.978;2023-10-13T10:46:18;8.48;;;7.00;;
68168;SDS011;54981;50.206;15.978;2023-10-13T10:48:57;8.38;;;6.60;;
68168;SDS011;54981;50.206;15.978;2023-10-13T10:51:30;13.63;;;7.53;;
68168;SDS011;54981;50.206;15.978;2023-10-13T10:54:03;10.50;;;7.37;;
68168;SDS011;54981;50.206;15.978;2023-10-13T10:56:43;9.88;;;7.60;;
68168;SDS011;54981;50.206;15.978;2023-10-13T10:59:13;11.02;;;8.23;;
68168;SDS011;54981;50.206;15.978;2023-10-13T11:01:50;9.43;;;7.25;;
68168;SDS011;54981;50.206;15.978;2023-10-13T11:04:21;9.88;;;7.38;;
68168;SDS011;54981;50.206;15.978;2023-10-13T11:07:03;10.98;;;7.07;;
68168;SDS011;54981;50.206;15.978;2023-10-13T11:09:36;9.47;;;6.47;;
68168;SDS011;54981;50.206;15.978;2023-10-13T11:14:44;10.48;;;6.55;;
68168;SDS011;54981;50.206;15.978;2023-10-13T11:17:20;9.23;;;6.15;;
68168;SDS011;54981;50.206;15.978;2023-10-13T11:19:56;10.57;;;7.30;;
68168;SDS011;54981;50.206;15.978;2023-10-13T11:22:26;13.00;;;7.45;;
68168;SDS011;54981;50.206;15.978;2023-10-13T11:25:03;9.32;;;7.07;;
68168;SDS011;54981;50.206;15.978;2023-10-13T11:27:42;9.45;;;6.95;;
68168;SDS011;54981;50.206;15.978;2023-10-13T11:30:18;8.13;;;6.75;;
68168;SDS011;54981;50.206;15.978;2023-10-13T11:33:23;10.10;;;6.03;;
68168;SDS011;54981;50.206;15.978;2023-10-13T11:35:59;9.55;;;6.22;;
68168;SDS011;54981;50.206;15.978;2023-10-13T11:38:33;10.20;;;6.32;;
68168;SDS011;54981;50.206;15.978;2023-10-13T11:41:10;9.25;;;6.65;;
68168;SDS011;54981;50.206;15.978;2023-10-13T11:43:52;9.10;;;6.85;;
68168;SDS011;54981;50.206;15.978;2023-10-13T11:46:27;15.23;;;7.45;;
68168;SDS011;54981;50.206;15.978;2023-10-13T11:49:07;10.60;;;6.55;;
68168;SDS011;54981;50.206;15.978;2023-10-13T11:51:46;8.38;;;6.38;;
68168;SDS011;54981;50.206;15.978;2023-10-13T11:54:18;10.32;;;7.13;;
68168;SDS011;54981;50.206;15.978;2023-10-13T11:59:21;11.10;;;7.03;;
68168;SDS011;54981;50.206;15.978;2023-10-13T12:01:57;11.55;;;6.30;;
68168;SDS011;54981;50.206;15.978;2023-10-13T12:04:45;8.93;;;6.50;;
68168;SDS011;54981;50.206;15.978;2023-10-13T12:07:22;8.75;;;5.53;;
68168;SDS011;54981;50.206;15.978;2023-10-13T12:10:30;10.70;;;6.53;;
68168;SDS011;54981;50.206;15.978;2023-10-13T12:13:04;10.13;;;5.80;;
68168;SDS011;54981;50.206;15.978;2023-10-13T12:15:40;9.80;;;6.55;;
68168;SDS011;54981;50.206;15.978;2023-10-13T12:18:21;14.65;;;6.60;;
68168;SDS011;54981;50.206;15.978;2023-10-13T12:20:53;10.40;;;6.00;;
68168;SDS011;54981;50.206;15.978;2023-10-13T12:23:23;9.70;;;6.43;;
68168;SDS011;54981;50.206;15.978;2023-10-13T12:26:02;9.52;;;6.80;;
68168;SDS011;54981;50.206;15.978;2023-10-13T12:28:36;12.52;;;6.72;;
68168;SDS011;54981;50.206;15.978;2023-10-13T12:31:11;11.38;;;6.07;;
68168;SDS011;54981;50.206;15.978;2023-10-13T12:33:42;11.15;;;6.68;;
68168;SDS011;54981;50.206;15.978;2023-10-13T12:36:12;9.68;;;6.15;;
68168;SDS011;54981;50.206;15.978;2023-10-13T12:38:51;9.05;;;6.28;;
68168;SDS011;54981;50.206;15.978;2023-10-13T12:41:42;11.45;;;7.20;;
68168;SDS011;54981;50.206;15.978;2023-10-13T12:44:30;10.32;;;6.38;;
68168;SDS011;54981;50.206;15.978;2023-10-13T12:47:19;12.15;;;6.90;;
68168;SDS011;54981;50.206;15.978;2023-10-13T12:50:08;10.02;;;6.18;;
68168;SDS011;54981;50.206;15.978;2023-10-13T12:52:54;13.50;;;7.18;;
68168;SDS011;54981;50.206;15.978;2023-10-13T12:55:24;9.80;;;6.82;;
68168;SDS011;54981;50.206;15.978;2023-10-13T12:57:55;15.20;;;7.38;;
68168;SDS011;54981;50.206;15.978;2023-10-13T13:00:25;14.15;;;6.47;;
68168;SDS011;54981;50.206;15.978;2023-10-13T13:03:03;12.23;;;6.88;;
68168;SDS011;54981;50.206;15.978;2023-10-13T13:05:41;10.85;;;6.47;;
68168;SDS011;54981;50.206;15.978;2023-10-13T13:10:51;11.95;;;6.90;;
68168;SDS011;54981;50.206;15.978;2023-10-13T13:13:22;11.48;;;6.05;;
68168;SDS011;54981;50.206;15.978;2023-10-13T13:15:54;12.27;;;7.25;;
68168;SDS011;54981;50.206;15.978;2023-10-13T13:18:24;11.60;;;6.32;;
68168;SDS011;54981;50.206;15.978;2023-10-13T13:20:55;10.82;;;6.60;;
68168;SDS011;54981;50.206;15.978;2023-10-13T13:23:26;12.50;;;7.25;;
68168;SDS011;54981;50.206;15.978;2023-10-13T13:25:56;12.35;;;5.80;;
68168;SDS011;54981;50.206;15.978;2023-10-13T13:28:26;13.27;;;6.40;;
68168;SDS011;54981;50.206;15.978;2023-10-13T13:30:59;12.82;;;7.07;;
68168;SDS011;54981;50.206;15.978;2023-10-13T13:33:29;10.13;;;6.45;;
68168;SDS011;54981;50.206;15.978;2023-10-13T13:36:08;11.68;;;7.05;;
68168;SDS011;54981;50.206;15.978;2023-10-13T13:38:49;10.88;;;6.45;;
68168;SDS011;54981;50.206;15.978;2023-10-13T13:41:21;14.45;;;7.25;;
68168;SDS011;54981;50.206;15.978;2023-10-13T13:43:51;13.35;;;6.97;;
68168;SDS011;54981;50.206;15.978;2023-10-13T13:46:27;11.52;;;6.97;;
68168;SDS011;54981;50.206;15.978;2023-10-13T13:49:02;13.00;;;7.68;;
68168;SDS011;54981;50.206;15.978;2023-10-13T13:51:36;10.20;;;6.63;;
68168;SDS011;54981;50.206;15.978;2023-10-13T13:54:08;13.05;;;6.85;;
68168;SDS011;54981;50.206;15.978;2023-10-13T13:56:38;12.98;;;7.03;;
68168;SDS011;54981;50.206;15.978;2023-10-13T13:59:08;13.18;;;6.75;;
68168;SDS011;54981;50.206;15.978;2023-10-13T14:01:39;10.10;;;6.55;;
68168;SDS011;54981;50.206;15.978;2023-10-13T14:04:10;11.18;;;6.40;;
68168;SDS011;54981;50.206;15.978;2023-10-13T14:06:41;16.35;;;10.65;;
68168;SDS011;54981;50.206;15.978;2023-10-13T14:09:14;15.77;;;9.43;;
68168;SDS011;54981;50.206;15.978;2023-10-13T14:12:02;15.73;;;9.38;;
68168;SDS011;54981;50.206;15.978;2023-10-13T14:14:51;24.30;;;13.10;;
68168;SDS011;54981;50.206;15.978;2023-10-13T14:17:27;17.70;;;10.20;;
68168;SDS011;54981;50.206;15.978;2023-10-13T14:20:05;16.80;;;12.00;;
68168;SDS011;54981;50.206;15.978;2023-10-13T14:22:45;16.83;;;10.27;;
68168;SDS011;54981;50.206;15.978;2023-10-13T14:25:19;14.40;;;7.82;;
68168;SDS011;54981;50.206;15.978;2023-10-13T14:27:54;13.30;;;6.75;;
68168;SDS011;54981;50.206;15.978;2023-10-13T14:30:28;11.32;;;6.45;;
68168;SDS011;54981;50.206;15.978;2023-10-13T14:33:01;14.53;;;7.77;;
68168;SDS011;54981;50.206;15.978;2023-10-13T14:35:35;17.05;;;9.13;;
68168;SDS011;54981;50.206;15.978;2023-10-13T14:38:06;14.48;;;8.85;;
68168;SDS011;54981;50.206;15.978;2023-10-13T14:40:37;12.77;;;8.20;;
68168;SDS011;54981;50.206;15.978;2023-10-13T14:43:07;17.25;;;9.13;;
68168;SDS011;54981;50.206;15.978;2023-10-13T14:45:38;13.73;;;8.65;;
68168;SDS011;54981;50.206;15.978;2023-10-13T14:48:08;11.90;;;7.88;;
68168;SDS011;54981;50.206;15.978;2023-10-13T14:50:42;14.88;;;8.43;;
68168;SDS011;54981;50.206;15.978;2023-10-13T14:53:13;14.57;;;8.68;;
68168;SDS011;54981;50.206;15.978;2023-10-13T14:55:47;13.10;;;8.10;;
68168;SDS011;54981;50.206;15.978;2023-10-13T14:58:18;14.27;;;7.40;;
68168;SDS011;54981;50.206;15.978;2023-10-13T15:00:48;12.10;;;7.93;;
68168;SDS011;54981;50.206;15.978;2023-10-13T15:03:18;12.40;;;7.72;;
68168;SDS011;54981;50.206;15.978;2023-10-13T15:05:49;14.73;;;8.48;;
68168;SDS011;54981;50.206;15.978;2023-10-13T15:08:19;17.90;;;8.98;;
68168;SDS011;54981;50.206;15.978;2023-10-13T15:10:49;16.92;;;9.63;;
68168;SDS011;54981;50.206;15.978;2023-10-13T15:13:20;16.85;;;8.93;;
68168;SDS011;54981;50.206;15.978;2023-10-13T15:15:52;15.30;;;7.50;;
68168;SDS011;54981;50.206;15.978;2023-10-13T15:18:23;13.60;;;7.63;;
68168;SDS011;54981;50.206;15.978;2023-10-13T15:20:53;12.05;;;7.50;;
68168;SDS011;54981;50.206;15.978;2023-10-13T15:23:23;11.52;;;7.60;;
68168;SDS011;54981;50.206;15.978;2023-10-13T15:25:55;14.68;;;7.43;;
68168;SDS011;54981;50.206;15.978;2023-10-13T15:28:27;14.02;;;7.82;;
68168;SDS011;54981;50.206;15.978;2023-10-13T15:33:40;14.25;;;7.15;;
68168;SDS011;54981;50.206;15.978;2023-10-13T15:36:13;12.60;;;7.15;;
68168;SDS011;54981;50.206;15.978;2023-10-13T15:38:43;14.20;;;8.15;;
68168;SDS011;54981;50.206;15.978;2023-10-13T15:41:20;13.75;;;7.85;;
68168;SDS011;54981;50.206;15.978;2023-10-13T15:43:53;14.38;;;7.90;;
68168;SDS011;54981;50.206;15.978;2023-10-13T15:46:24;11.60;;;7.80;;